createdAt,value
2022-11-09T00:00:07.988Z,55.88
2022-11-09T00:01:11.039Z,55.15
2022-11-09T00:02:14.713Z,46.33
2022-11-09T00:03:17.838Z,48.85
2022-11-09T00:04:24.476Z,42.70
2022-11-09T00:05:29.795Z,52.45
2022-11-09T00:06:34.457Z,52.25
2022-11-09T00:07:38.476Z,43.28
2022-11-09T00:08:43.575Z,50.90
2022-11-09T00:09:46.486Z,52.72
2022-11-09T00:10:50.355Z,45.28
2022-11-09T00:11:54.685Z,54.75
2022-11-09T00:13:02.241Z,57.42
2022-11-09T00:14:05.885Z,67.63
2022-11-09T00:15:11.827Z,48.60
2022-11-09T00:16:20.736Z,48.83
2022-11-09T00:17:24.406Z,46.95
2022-11-09T00:18:27.054Z,52.22
2022-11-09T00:19:31.213Z,51.55
2022-11-09T00:20:33.943Z,46.75
2022-11-09T00:21:37.634Z,45.97
2022-11-09T00:22:40.532Z,46.22
2022-11-09T00:23:45.333Z,41.38
2022-11-09T00:24:48.035Z,41.42
2022-11-09T00:25:52.132Z,43.78
2022-11-09T00:26:56.195Z,44.15
2022-11-09T00:28:01.504Z,39.42
2022-11-09T00:29:05.302Z,39.28
2022-11-09T00:30:12.514Z,41.00
2022-11-09T00:31:17.815Z,41.85
2022-11-09T00:32:26.616Z,39.92
2022-11-09T00:33:31.734Z,38.33
2022-11-09T00:34:35.172Z,39.67
2022-11-09T00:35:40.236Z,39.88
2022-11-09T00:36:50.398Z,38.40
2022-11-09T00:37:54.666Z,36.50
2022-11-09T00:39:04.116Z,35.40
2022-11-09T00:40:11.088Z,38.30
2022-11-09T00:41:14.823Z,37.97
2022-11-09T00:42:19.533Z,36.30
2022-11-09T00:43:24.775Z,36.05
2022-11-09T00:44:27.392Z,34.92
2022-11-09T00:45:31.972Z,35.42
2022-11-09T00:46:35.763Z,34.90
2022-11-09T00:47:39.337Z,32.92
2022-11-09T00:48:56.751Z,36.85
2022-11-09T00:50:02.963Z,35.20
2022-11-09T00:51:07.721Z,34.08
2022-11-09T00:52:10.604Z,41.50
2022-11-09T00:53:21.619Z,53.28
2022-11-09T00:54:24.485Z,43.60
2022-11-09T00:55:31.614Z,36.30
2022-11-09T00:56:35.845Z,32.45
2022-11-09T00:57:39.524Z,34.85
2022-11-09T00:58:47.096Z,33.70
2022-11-09T00:59:52.314Z,36.40
2022-11-09T01:00:59.713Z,34.58
2022-11-09T01:02:03.597Z,32.70
2022-11-09T01:03:06.466Z,37.95
2022-11-09T01:04:10.193Z,36.53
2022-11-09T01:05:13.168Z,36.10
2022-11-09T01:06:18.346Z,36.70
2022-11-09T01:07:21.171Z,35.28
2022-11-09T01:08:34.257Z,38.75
2022-11-09T01:09:36.914Z,34.90
2022-11-09T01:10:43.683Z,32.95
2022-11-09T01:11:50.235Z,30.42
2022-11-09T01:12:53.028Z,33.63
2022-11-09T01:14:01.152Z,31.05
2022-11-09T01:15:06.763Z,33.80
2022-11-09T01:16:16.366Z,31.60
2022-11-09T01:17:21.924Z,32.08
2022-11-09T01:18:29.033Z,32.58
2022-11-09T01:19:32.805Z,31.63
2022-11-09T01:20:39.385Z,33.17
2022-11-09T01:21:43.055Z,32.72
2022-11-09T01:22:45.797Z,33.20
2022-11-09T01:23:50.674Z,35.55
2022-11-09T01:24:53.534Z,36.60
2022-11-09T01:26:03.312Z,52.70
2022-11-09T01:27:07.105Z,41.15
2022-11-09T01:28:10.634Z,46.78
2022-11-09T01:29:15.844Z,39.45
2022-11-09T01:30:19.308Z,40.47
2022-11-09T01:31:24.398Z,43.53
2022-11-09T01:32:27.475Z,40.72
2022-11-09T01:33:31.246Z,41.92
2022-11-09T01:34:34.212Z,46.40
2022-11-09T01:35:42.974Z,41.28
2022-11-09T01:36:45.665Z,38.42
2022-11-09T01:37:50.367Z,37.28
2022-11-09T01:38:54.084Z,36.90
2022-11-09T01:40:00.277Z,36.88
2022-11-09T01:41:03.485Z,36.35
2022-11-09T01:42:07.685Z,33.17
2022-11-09T01:43:17.170Z,31.30
2022-11-09T01:44:24.283Z,30.90
2022-11-09T01:45:28.843Z,31.15
2022-11-09T01:46:36.785Z,31.90
2022-11-09T01:47:42.123Z,30.52
2022-11-09T01:48:47.847Z,33.00
2022-11-09T01:49:54.545Z,30.70
2022-11-09T01:51:03.593Z,28.33
2022-11-09T01:52:14.663Z,27.58
2022-11-09T01:53:20.599Z,28.52
2022-11-09T01:54:30.837Z,29.15
2022-11-09T01:55:40.795Z,28.40
2022-11-09T01:56:46.535Z,27.20
2022-11-09T01:57:53.506Z,30.15
2022-11-09T01:59:03.075Z,29.90
2022-11-09T02:00:12.793Z,28.98
2022-11-09T02:01:20.153Z,32.10
2022-11-09T02:02:23.436Z,33.05
2022-11-09T02:03:30.039Z,33.88
2022-11-09T02:04:35.456Z,42.40
2022-11-09T02:11:49.743Z,29.48
2022-11-09T02:12:55.092Z,30.58
2022-11-09T02:14:02.604Z,29.52
2022-11-09T02:15:12.184Z,30.33
2022-11-09T02:16:16.881Z,32.25
2022-11-09T02:17:22.173Z,34.28
2022-11-09T02:18:27.006Z,37.50
2022-11-09T02:19:30.643Z,38.20
2022-11-09T02:20:46.664Z,30.50
2022-11-09T02:21:51.282Z,27.80
2022-11-09T02:22:55.304Z,30.83
2022-11-09T02:23:59.305Z,27.85
2022-11-09T02:25:05.656Z,29.42
2022-11-09T02:26:12.733Z,32.55
2022-11-09T02:27:15.446Z,30.50
2022-11-09T02:28:20.787Z,32.08
2022-11-09T02:29:27.171Z,31.65
2022-11-09T02:30:33.488Z,28.42
2022-11-09T02:31:40.322Z,31.50
2022-11-09T02:32:44.162Z,30.33
2022-11-09T02:33:55.647Z,34.33
2022-11-09T02:35:04.603Z,34.30
2022-11-09T02:36:08.884Z,31.58
2022-11-09T02:37:13.805Z,32.38
2022-11-09T02:38:17.082Z,29.80
2022-11-09T02:39:23.313Z,29.55
2022-11-09T02:40:34.093Z,30.80
2022-11-09T02:41:40.702Z,30.92
2022-11-09T02:42:44.594Z,34.28
2022-11-09T02:43:51.002Z,30.73
2022-11-09T02:45:00.121Z,33.10
2022-11-09T02:46:03.014Z,33.83
2022-11-09T02:47:11.633Z,43.83
2022-11-09T02:48:14.604Z,45.70
2022-11-09T02:49:19.642Z,43.25
2022-11-09T02:50:22.350Z,43.85
2022-11-09T02:51:27.802Z,37.63
2022-11-09T02:52:30.543Z,39.17
2022-11-09T02:53:37.571Z,38.67
2022-11-09T02:54:40.253Z,40.15
2022-11-09T02:55:45.487Z,40.13
2022-11-09T02:56:49.262Z,40.75
2022-11-09T02:57:54.764Z,40.42
2022-11-09T02:58:57.971Z,45.25
2022-11-09T03:00:07.376Z,38.22
2022-11-09T03:01:10.646Z,35.33
2022-11-09T03:02:14.513Z,36.13
2022-11-09T03:03:21.086Z,37.42
2022-11-09T03:04:25.594Z,32.67
2022-11-09T03:05:29.624Z,34.22
2022-11-09T03:06:36.409Z,36.53
2022-11-09T03:07:46.757Z,32.05
2022-11-09T03:08:51.092Z,36.65
2022-11-09T03:09:54.666Z,40.97
2022-11-09T03:11:01.269Z,38.80
2022-11-09T03:12:24.791Z,36.83
2022-11-09T03:13:31.604Z,44.55
2022-11-09T03:14:34.463Z,41.90
2022-11-09T03:15:41.103Z,40.13
2022-11-09T03:16:50.020Z,39.58
2022-11-09T03:17:54.344Z,37.72
2022-11-09T03:18:58.357Z,35.83
2022-11-09T03:20:02.693Z,36.50
2022-11-09T03:21:08.384Z,39.80
2022-11-09T03:22:14.532Z,35.45
2022-11-09T03:23:22.211Z,34.30
2022-11-09T03:24:25.068Z,31.45
2022-11-09T03:25:32.672Z,35.05
2022-11-09T03:26:36.202Z,34.63
2022-11-09T03:27:40.313Z,36.20
2022-11-09T03:28:44.065Z,36.75
2022-11-09T03:29:48.372Z,37.05
2022-11-09T03:30:51.283Z,35.70
2022-11-09T03:31:55.125Z,33.80
2022-11-09T03:33:02.288Z,34.33
2022-11-09T03:34:05.271Z,35.42
2022-11-09T03:35:12.201Z,38.08
2022-11-09T03:36:15.564Z,35.42
2022-11-09T03:37:20.911Z,34.58
2022-11-09T03:38:24.913Z,36.40
2022-11-09T03:39:32.354Z,34.25
2022-11-09T03:40:35.431Z,34.67
2022-11-09T03:41:39.546Z,35.58
2022-11-09T03:42:47.957Z,34.65
2022-11-09T03:43:51.923Z,35.35
2022-11-09T03:44:54.639Z,34.53
2022-11-09T03:45:58.404Z,32.67
2022-11-09T03:47:03.746Z,32.97
2022-11-09T03:48:09.794Z,35.80
2022-11-09T03:49:15.916Z,38.33
2022-11-09T03:50:19.953Z,33.58
2022-11-09T03:51:22.642Z,35.70
2022-11-09T03:52:27.860Z,34.45
2022-11-09T03:53:30.494Z,35.70
2022-11-09T03:54:37.045Z,38.25
2022-11-09T03:55:41.420Z,37.53
2022-11-09T03:56:45.317Z,36.92
2022-11-09T03:57:48.148Z,38.90
2022-11-09T03:58:52.054Z,41.15
2022-11-09T03:59:57.263Z,40.83
2022-11-09T04:01:01.123Z,38.80
2022-11-09T04:02:04.076Z,37.28
2022-11-09T04:03:07.865Z,37.85
2022-11-09T04:04:10.689Z,38.83
2022-11-09T04:05:17.366Z,38.10
2022-11-09T04:06:20.153Z,44.60
2022-11-09T04:07:25.696Z,44.25
2022-11-09T04:08:30.903Z,44.72
2022-11-09T04:09:36.761Z,49.25
2022-11-09T04:10:39.453Z,45.20
2022-11-09T04:11:46.324Z,46.70
2022-11-09T04:12:51.173Z,46.75
2022-11-09T04:13:54.976Z,45.60
2022-11-09T04:14:57.766Z,50.78
2022-11-09T04:16:02.342Z,47.40
2022-11-09T04:17:07.337Z,45.55
2022-11-09T04:18:16.002Z,47.35
2022-11-09T04:19:19.932Z,43.50
2022-11-09T04:20:24.005Z,46.58
2022-11-09T04:21:27.766Z,54.60
2022-11-09T04:22:30.467Z,47.88
2022-11-09T04:23:36.386Z,45.35
2022-11-09T04:24:39.995Z,46.05
2022-11-09T04:25:44.024Z,45.35
2022-11-09T04:26:54.052Z,41.75
2022-11-09T04:27:58.157Z,42.55
2022-11-09T04:29:01.863Z,42.80
2022-11-09T04:30:05.433Z,46.10
2022-11-09T04:31:09.232Z,45.53
2022-11-09T04:32:11.935Z,40.17
2022-11-09T04:33:15.775Z,42.70
2022-11-09T04:34:18.815Z,43.05
2022-11-09T04:35:22.815Z,47.03
2022-11-09T04:36:25.594Z,41.65
2022-11-09T04:37:29.272Z,41.92
2022-11-09T04:38:31.934Z,40.45
2022-11-09T04:39:37.513Z,39.03
2022-11-09T04:40:43.736Z,38.95
2022-11-09T04:41:50.302Z,35.85
2022-11-09T04:42:53.054Z,38.03
2022-11-09T04:43:59.193Z,39.08
2022-11-09T04:45:01.920Z,40.03
2022-11-09T04:46:06.066Z,41.10
2022-11-09T04:47:08.764Z,40.08
2022-11-09T04:48:15.740Z,37.40
2022-11-09T04:49:18.475Z,38.33
2022-11-09T04:50:22.202Z,37.28
2022-11-09T04:51:29.587Z,35.38
2022-11-09T04:52:32.401Z,34.70
2022-11-09T04:53:36.985Z,37.25
2022-11-09T04:54:41.085Z,34.60
2022-11-09T04:55:45.686Z,37.90
2022-11-09T04:56:48.846Z,39.17
2022-11-09T04:57:54.404Z,40.80
2022-11-09T04:58:57.147Z,42.78
2022-11-09T05:00:00.915Z,48.78
2022-11-09T05:01:04.593Z,55.00
2022-11-09T05:02:08.332Z,45.58
2022-11-09T05:03:11.054Z,39.08
2022-11-09T05:04:15.115Z,42.55
2022-11-09T05:05:17.924Z,42.72
2022-11-09T05:06:35.461Z,46.92
2022-11-09T05:07:38.210Z,45.03
2022-11-09T05:08:42.206Z,46.88
2022-11-09T05:09:46.392Z,44.13
2022-11-09T05:10:53.140Z,44.85
2022-11-09T05:11:55.814Z,45.20
2022-11-09T05:13:02.110Z,46.30
2022-11-09T05:14:05.699Z,43.38
2022-11-09T05:15:10.145Z,42.70
2022-11-09T05:16:12.969Z,40.22
2022-11-09T05:17:16.802Z,41.55
2022-11-09T05:18:23.290Z,43.10
2022-11-09T05:19:25.972Z,40.97
2022-11-09T05:20:31.726Z,39.08
2022-11-09T05:21:34.534Z,41.97
2022-11-09T05:23:01.727Z,42.83
2022-11-09T05:24:06.023Z,37.40
2022-11-09T05:25:13.494Z,37.00
2022-11-09T05:26:19.731Z,36.55
2022-11-09T05:27:25.065Z,36.28
2022-11-09T05:28:27.744Z,35.35
2022-11-09T05:29:31.432Z,37.55
2022-11-09T05:30:34.102Z,41.05
2022-11-09T05:31:40.313Z,36.20
2022-11-09T05:32:43.041Z,38.90
2022-11-09T05:33:50.452Z,38.97
2022-11-09T05:34:53.146Z,42.38
2022-11-09T05:35:57.141Z,43.65
2022-11-09T05:37:03.452Z,44.95
2022-11-09T05:38:08.376Z,40.83
2022-11-09T05:39:12.433Z,38.80
2022-11-09T05:40:22.743Z,41.67
2022-11-09T05:41:26.865Z,37.35
2022-11-09T05:42:31.487Z,37.85
2022-11-09T05:43:35.296Z,38.13
2022-11-09T05:44:37.991Z,32.55
2022-11-09T05:45:43.460Z,35.92
2022-11-09T05:46:48.512Z,35.17
2022-11-09T05:47:52.233Z,39.70
2022-11-09T05:48:56.944Z,37.22
2022-11-09T05:49:59.665Z,37.05
2022-11-09T05:51:03.786Z,33.75
2022-11-09T05:52:06.632Z,34.63
2022-11-09T05:53:13.491Z,35.05
2022-11-09T05:54:19.254Z,33.17
2022-11-09T05:55:23.343Z,33.25
2022-11-09T05:56:27.163Z,32.90
2022-11-09T05:57:30.105Z,39.97
2022-11-09T05:58:36.576Z,41.65
2022-11-09T05:59:39.273Z,40.92
2022-11-09T06:00:43.046Z,46.92
2022-11-09T06:01:45.761Z,43.67
2022-11-09T06:02:49.485Z,43.03
2022-11-09T06:03:56.960Z,46.58
2022-11-09T06:05:00.723Z,45.72
2022-11-09T06:06:08.644Z,46.63
2022-11-09T06:07:13.359Z,46.17
2022-11-09T06:08:17.378Z,48.80
2022-11-09T06:09:20.065Z,48.85
2022-11-09T06:10:25.258Z,49.22
2022-11-09T06:11:29.943Z,54.60
2022-11-09T06:12:32.696Z,46.75
2022-11-09T06:13:39.144Z,51.05
2022-11-09T06:14:44.604Z,55.58
2022-11-09T06:15:56.235Z,44.50
2022-11-09T06:17:01.836Z,46.17
2022-11-09T06:18:05.824Z,51.40
2022-11-09T06:19:11.527Z,52.28
2022-11-09T06:20:16.635Z,50.60
2022-11-09T06:21:20.392Z,52.72
2022-11-09T06:22:23.244Z,50.10
2022-11-09T06:23:27.856Z,53.35
2022-11-09T06:24:30.523Z,49.97
2022-11-09T06:25:35.703Z,54.47
2022-11-09T06:26:38.506Z,56.20
2022-11-09T06:27:42.222Z,53.83
2022-11-09T06:28:46.359Z,48.75
2022-11-09T06:29:49.236Z,50.92
2022-11-09T06:30:53.228Z,54.08
2022-11-09T06:31:57.235Z,54.17
2022-11-09T06:33:02.433Z,52.63
2022-11-09T06:34:06.385Z,51.72
2022-11-09T06:35:09.715Z,50.08
2022-11-09T06:36:13.984Z,52.28
2022-11-09T06:37:18.005Z,50.92
2022-11-09T06:38:21.755Z,46.53
2022-11-09T06:39:24.474Z,49.55
2022-11-09T06:40:28.764Z,50.55
2022-11-09T06:41:33.426Z,47.97
2022-11-09T06:42:37.212Z,48.47
2022-11-09T06:43:40.996Z,45.13
2022-11-09T06:44:43.782Z,47.47
2022-11-09T06:45:47.607Z,44.33
2022-11-09T06:46:50.337Z,48.70
2022-11-09T06:47:56.991Z,45.80
2022-11-09T06:49:00.957Z,47.58
2022-11-09T06:50:03.841Z,45.58
2022-11-09T06:51:08.675Z,43.58
2022-11-09T06:52:12.445Z,44.70
2022-11-09T06:53:18.229Z,42.95
2022-11-09T06:54:21.157Z,42.92
2022-11-09T06:55:24.965Z,43.83
2022-11-09T06:56:27.967Z,41.42
2022-11-09T06:57:33.333Z,38.53
2022-11-09T06:58:37.774Z,40.03
2022-11-09T06:59:40.504Z,38.78
2022-11-09T07:00:45.271Z,38.30
2022-11-09T07:01:49.211Z,41.17
2022-11-09T07:02:53.612Z,32.28
2022-11-09T07:03:57.488Z,34.42
2022-11-09T07:05:00.322Z,34.97
2022-11-09T07:06:07.182Z,35.15
2022-11-09T07:07:10.083Z,34.55
2022-11-09T07:08:14.779Z,32.22
2022-11-09T07:09:18.514Z,32.53
2022-11-09T07:10:21.203Z,36.70
2022-11-09T07:11:25.037Z,31.63
2022-11-09T07:12:27.821Z,33.78
2022-11-09T07:13:33.200Z,32.05
2022-11-09T07:14:37.043Z,31.52
2022-11-09T07:15:40.144Z,30.75
2022-11-09T07:16:44.003Z,29.88
2022-11-09T07:17:47.894Z,32.90
2022-11-09T07:18:50.590Z,30.30
2022-11-09T07:19:54.351Z,29.98
2022-11-09T07:20:56.993Z,35.03
2022-11-09T07:22:01.005Z,33.47
2022-11-09T07:23:03.974Z,34.80
2022-11-09T07:24:08.503Z,35.50
2022-11-09T07:25:12.242Z,36.95
2022-11-09T07:26:16.133Z,35.97
2022-11-09T07:27:21.389Z,38.25
2022-11-09T07:28:29.325Z,38.05
2022-11-09T07:29:33.560Z,38.25
2022-11-09T07:30:38.097Z,38.88
2022-11-09T07:31:42.092Z,38.83
2022-11-09T07:34:08.943Z,35.20
2022-11-09T07:35:11.873Z,35.30
2022-11-09T07:36:20.854Z,35.78
2022-11-09T07:37:24.316Z,35.88
2022-11-09T07:38:28.676Z,36.15
2022-11-09T07:39:32.002Z,34.67
2022-11-09T07:40:36.243Z,35.38
2022-11-09T07:41:40.032Z,36.58
2022-11-09T07:42:42.771Z,35.08
2022-11-09T07:43:46.716Z,35.05
2022-11-09T07:44:50.965Z,37.28
2022-11-09T07:45:54.803Z,36.30
2022-11-09T07:46:57.651Z,35.63
2022-11-09T07:48:03.022Z,35.72
2022-11-09T07:49:06.929Z,33.63
2022-11-09T07:50:10.527Z,34.10
2022-11-09T07:51:14.403Z,35.17
2022-11-09T07:52:17.263Z,31.77
2022-11-09T07:53:21.757Z,33.90
2022-11-09T07:54:26.116Z,33.25
2022-11-09T07:55:29.461Z,32.08
2022-11-09T07:56:33.244Z,32.80
2022-11-09T07:57:35.907Z,32.05
2022-11-09T07:58:39.601Z,32.70
2022-11-09T07:59:43.455Z,32.63
2022-11-09T08:00:47.530Z,31.27
2022-11-09T08:01:51.359Z,31.08
2022-11-09T08:02:54.479Z,31.40
2022-11-09T08:03:58.353Z,31.73
2022-11-09T08:05:02.252Z,32.65
2022-11-09T08:06:06.314Z,31.05
2022-11-09T08:07:10.110Z,30.58
2022-11-09T08:08:15.845Z,31.27
2022-11-09T08:09:20.182Z,29.85
2022-11-09T08:10:23.141Z,30.35
2022-11-09T08:11:26.934Z,30.80
2022-11-09T08:12:35.766Z,31.85
2022-11-09T08:13:40.842Z,32.85
2022-11-09T08:14:44.572Z,30.90
2022-11-09T08:15:49.828Z,30.65
2022-11-09T08:16:52.763Z,29.95
2022-11-09T08:18:00.793Z,30.05
2022-11-09T08:19:03.920Z,29.75
2022-11-09T08:20:08.621Z,29.33
2022-11-09T08:21:12.684Z,28.35
2022-11-09T08:22:15.606Z,29.38
2022-11-09T08:23:21.171Z,28.88
2022-11-09T08:24:25.797Z,27.73
2022-11-09T08:25:28.762Z,27.73
2022-11-09T08:26:32.469Z,27.50
2022-11-09T08:27:40.291Z,27.98
2022-11-09T08:28:43.983Z,27.70
2022-11-09T08:29:46.855Z,25.58
2022-11-09T08:30:58.812Z,25.42
2022-11-09T08:32:02.553Z,25.15
2022-11-09T08:33:07.211Z,24.85
2022-11-09T08:34:12.700Z,26.38
2022-11-09T08:35:18.222Z,26.48
2022-11-09T08:36:22.284Z,26.30
2022-11-09T08:37:25.073Z,25.60
2022-11-09T08:38:28.997Z,26.38
2022-11-09T08:39:32.785Z,24.42
2022-11-09T08:40:36.608Z,25.45
2022-11-09T08:41:40.353Z,23.83
2022-11-09T08:42:43.263Z,24.15
2022-11-09T08:43:47.165Z,24.55
2022-11-09T08:44:49.816Z,23.30
2022-11-09T08:45:53.940Z,24.00
2022-11-09T08:46:59.120Z,22.15
2022-11-09T08:48:02.410Z,24.25
2022-11-09T08:49:06.738Z,23.20
2022-11-09T08:50:10.912Z,23.58
2022-11-09T08:51:14.759Z,21.60
2022-11-09T08:52:17.708Z,21.45
2022-11-09T08:53:21.509Z,21.05
2022-11-09T08:54:25.461Z,21.70
2022-11-09T08:55:29.375Z,20.63
2022-11-09T08:56:33.352Z,20.10
2022-11-09T08:57:37.143Z,21.48
2022-11-09T08:58:41.125Z,19.27
2022-11-09T08:59:45.181Z,19.80
2022-11-09T09:00:48.932Z,20.80
2022-11-09T09:01:52.793Z,19.10
2022-11-09T09:02:58.343Z,18.20
2022-11-09T09:04:01.423Z,18.27
2022-11-09T09:05:05.951Z,18.30
2022-11-09T09:06:10.084Z,18.73
2022-11-09T09:07:14.436Z,19.38
2022-11-09T09:08:19.218Z,18.45
2022-11-09T09:09:23.230Z,19.80
2022-11-09T09:10:27.129Z,17.42
2022-11-09T09:11:31.031Z,18.52
2022-11-09T09:12:33.940Z,19.08
2022-11-09T09:13:42.898Z,18.05
2022-11-09T09:14:47.370Z,17.20
2022-11-09T09:15:51.452Z,18.45
2022-11-09T09:16:54.221Z,17.95
2022-11-09T09:18:01.054Z,17.48
2022-11-09T09:19:04.852Z,19.73
2022-11-09T09:20:08.962Z,18.23
2022-11-09T09:21:13.723Z,17.23
2022-11-09T09:22:16.585Z,18.38
2022-11-09T09:23:20.382Z,18.02
2022-11-09T09:24:23.350Z,18.42
2022-11-09T09:25:27.400Z,19.25
2022-11-09T09:26:31.143Z,18.02
2022-11-09T09:27:35.351Z,17.88
2022-11-09T09:28:39.486Z,17.63
2022-11-09T09:29:43.423Z,18.08
2022-11-09T09:30:47.292Z,17.50
2022-11-09T09:31:51.184Z,18.80
2022-11-09T09:33:01.464Z,18.90
2022-11-09T09:34:05.360Z,18.50
2022-11-09T09:35:09.874Z,16.67
2022-11-09T09:36:18.113Z,17.77
2022-11-09T09:37:21.945Z,17.77
2022-11-09T09:38:25.870Z,17.13
2022-11-09T09:39:30.110Z,17.20
2022-11-09T09:40:38.427Z,16.88
2022-11-09T09:41:46.125Z,17.30
2022-11-09T09:42:50.223Z,17.50
2022-11-09T09:43:55.970Z,17.33
2022-11-09T09:45:02.571Z,17.40
2022-11-09T09:46:09.342Z,17.48
2022-11-09T09:47:16.360Z,16.75
2022-11-09T09:48:28.260Z,17.55
2022-11-09T09:49:33.887Z,16.67
2022-11-09T09:50:42.067Z,17.73
2022-11-09T09:51:50.843Z,17.73
2022-11-09T09:53:23.343Z,17.20
2022-11-09T09:54:25.532Z,17.35
2022-11-09T09:55:36.200Z,16.88
2022-11-09T09:56:44.351Z,17.33
2022-11-09T09:57:51.183Z,17.63
2022-11-09T09:58:59.482Z,17.83
2022-11-09T10:00:05.401Z,17.25
2022-11-09T10:01:17.092Z,17.50
2022-11-09T10:02:24.553Z,18.75
2022-11-09T10:03:29.852Z,17.42
2022-11-09T10:04:37.144Z,16.67
2022-11-09T10:05:49.652Z,17.73
2022-11-09T10:07:03.477Z,17.70
2022-11-09T10:08:10.981Z,17.13
2022-11-09T10:09:23.860Z,18.33
2022-11-09T10:10:38.944Z,17.98
2022-11-09T10:11:49.491Z,18.00
2022-11-09T10:13:07.456Z,18.77
2022-11-09T10:14:35.930Z,16.50
2022-11-09T10:15:46.394Z,16.98
2022-11-09T10:16:56.992Z,18.02
2022-11-09T10:18:14.443Z,17.42
2022-11-09T10:19:29.871Z,16.73
2022-11-09T10:20:42.522Z,16.98
2022-11-09T10:21:52.231Z,17.13
2022-11-09T10:23:08.682Z,17.25
2022-11-09T10:24:26.344Z,16.58
2022-11-09T10:26:02.522Z,16.90
2022-11-09T10:26:56.971Z,16.17
2022-11-09T10:28:02.801Z,15.30
2022-11-09T10:29:18.684Z,17.15
2022-11-09T10:30:24.673Z,16.92
2022-11-09T10:31:33.010Z,16.25
2022-11-09T10:32:38.032Z,17.30
2022-11-09T10:33:40.715Z,18.52
2022-11-09T10:34:54.873Z,16.00
2022-11-09T10:36:08.206Z,16.52
2022-11-09T10:37:16.390Z,14.80
2022-11-09T10:38:25.490Z,16.33
2022-11-09T10:39:51.081Z,15.20
2022-11-09T10:41:18.494Z,15.95
2022-11-09T10:42:40.743Z,18.20
2022-11-09T10:44:03.662Z,16.00
2022-11-09T10:45:36.642Z,14.93
2022-11-09T10:47:12.064Z,16.23
2022-11-09T10:48:36.572Z,16.35
2022-11-09T10:50:22.840Z,14.65
2022-11-09T10:51:47.011Z,14.98
2022-11-09T10:53:17.103Z,15.50
2022-11-09T10:54:39.783Z,15.30
2022-11-09T10:56:11.494Z,14.43
2022-11-09T10:57:33.952Z,14.13
2022-11-09T10:58:56.563Z,13.32
2022-11-09T11:00:20.757Z,14.27
2022-11-09T11:01:43.267Z,14.18
2022-11-09T11:03:13.053Z,13.98
2022-11-09T11:04:35.335Z,13.68
2022-11-09T11:06:03.033Z,13.70
2022-11-09T11:07:25.457Z,12.98
2022-11-09T11:08:49.781Z,13.48
2022-11-09T11:10:12.500Z,14.23
2022-11-09T11:11:36.959Z,13.38
2022-11-09T11:13:22.194Z,14.75
2022-11-09T11:14:46.302Z,12.27
2022-11-09T11:16:17.397Z,12.05
2022-11-09T11:17:41.389Z,11.73
2022-11-09T11:19:04.271Z,12.80
2022-11-09T11:20:32.020Z,11.98
2022-11-09T11:22:23.033Z,13.02
2022-11-09T11:23:45.942Z,14.30
2022-11-09T11:25:19.989Z,12.65
2022-11-09T11:26:47.842Z,20.48
2022-11-09T11:28:19.050Z,14.98
2022-11-09T11:29:49.072Z,12.82
2022-11-09T11:31:13.440Z,11.65
2022-11-09T11:32:35.985Z,12.00
2022-11-09T11:33:58.893Z,12.23
2022-11-09T11:35:27.400Z,10.65
2022-11-09T11:36:59.023Z,11.65
2022-11-09T11:38:29.304Z,11.57
2022-11-09T11:40:01.453Z,10.35
2022-11-09T11:41:42.809Z,10.10
2022-11-09T11:43:23.352Z,10.43
2022-11-09T11:45:25.522Z,10.45
2022-11-09T11:46:47.904Z,9.65
2022-11-09T11:48:39.570Z,10.82
2022-11-09T11:50:22.777Z,9.75
2022-11-09T11:51:51.663Z,9.60
2022-11-09T11:53:21.567Z,9.32
2022-11-09T11:54:55.572Z,10.55
2022-11-09T11:56:23.133Z,10.32
2022-11-09T11:57:52.289Z,11.55
2022-11-09T11:59:40.712Z,9.68
2022-11-09T12:01:12.621Z,10.20
2022-11-09T12:02:56.127Z,10.23
2022-11-09T12:04:34.135Z,9.95
2022-11-09T12:06:08.344Z,9.13
2022-11-09T12:07:36.352Z,9.82
2022-11-09T12:09:24.659Z,8.55
2022-11-09T12:10:55.854Z,8.70
2022-11-09T12:12:27.343Z,8.13
2022-11-09T12:14:02.418Z,8.60
2022-11-09T12:15:39.792Z,7.78
2022-11-09T12:17:09.153Z,7.68
2022-11-09T12:18:43.242Z,7.72
2022-11-09T12:20:18.659Z,8.02
2022-11-09T12:21:45.865Z,7.75
2022-11-09T12:23:25.481Z,7.45
2022-11-09T12:24:53.642Z,9.23
2022-11-09T12:26:26.451Z,8.63
2022-11-09T12:28:01.054Z,8.07
2022-11-09T12:29:27.774Z,7.50
2022-11-09T12:31:01.042Z,7.60
2022-11-09T12:32:31.783Z,7.80
2022-11-09T12:33:59.905Z,10.50
2022-11-09T12:35:27.077Z,10.40
2022-11-09T12:36:54.429Z,7.40
2022-11-09T12:38:19.909Z,8.23
2022-11-09T12:39:45.091Z,8.35
2022-11-09T12:41:11.730Z,8.05
2022-11-09T12:42:38.894Z,9.77
2022-11-09T12:44:05.232Z,9.82
2022-11-09T12:45:31.122Z,8.02
2022-11-09T12:46:59.125Z,9.20
2022-11-09T12:48:24.777Z,8.23
2022-11-09T12:49:48.179Z,7.68
2022-11-09T12:51:11.295Z,7.57
2022-11-09T12:52:33.742Z,7.55
2022-11-09T12:53:56.986Z,7.38
2022-11-09T12:55:21.580Z,7.47
2022-11-09T12:56:47.640Z,7.72
2022-11-09T12:58:22.646Z,8.00
2022-11-09T12:59:50.400Z,8.25
2022-11-09T13:01:14.376Z,8.05
2022-11-09T13:02:43.744Z,8.50
2022-11-09T13:04:07.723Z,8.10
2022-11-09T13:05:32.215Z,7.80
2022-11-09T13:07:19.794Z,9.18
2022-11-09T13:08:42.449Z,8.60
2022-11-09T13:10:05.433Z,8.63
2022-11-09T13:11:36.374Z,9.50
2022-11-09T13:13:07.149Z,8.00
2022-11-09T13:14:37.073Z,8.25
2022-11-09T13:16:12.541Z,8.60
2022-11-09T13:17:58.193Z,8.35
2022-11-09T13:19:52.716Z,9.35
2022-11-09T13:21:40.763Z,10.27
2022-11-09T13:23:05.032Z,8.93
2022-11-09T13:24:55.426Z,8.82
2022-11-09T13:26:25.744Z,8.10
2022-11-09T13:27:49.992Z,8.93
2022-11-09T13:29:24.322Z,9.25
2022-11-09T13:30:48.333Z,8.98
2022-11-09T13:32:33.589Z,8.98
2022-11-09T13:34:37.196Z,8.68
2022-11-09T13:36:21.755Z,8.70
2022-11-09T13:38:08.743Z,8.75
2022-11-09T13:39:34.002Z,9.15
2022-11-09T13:40:57.295Z,8.95
2022-11-09T13:42:29.278Z,9.18
2022-11-09T13:44:09.314Z,9.48
2022-11-09T13:45:35.017Z,9.63
2022-11-09T13:46:58.799Z,8.77
2022-11-09T13:48:43.213Z,9.25
2022-11-09T13:50:12.881Z,9.48
2022-11-09T13:51:46.253Z,9.77
2022-11-09T13:53:29.204Z,9.13
2022-11-09T13:54:54.813Z,9.18
2022-11-09T13:56:27.329Z,9.25
2022-11-09T13:57:50.063Z,9.45
2022-11-09T13:59:16.802Z,8.98
2022-11-09T14:00:39.294Z,10.55
2022-11-09T14:02:04.024Z,10.30
2022-11-09T14:03:28.472Z,14.15
2022-11-09T14:04:51.124Z,14.15
2022-11-09T14:06:14.881Z,13.52
2022-11-09T14:07:37.628Z,15.35
2022-11-09T14:09:00.394Z,15.40
2022-11-09T14:10:29.228Z,9.60
2022-11-09T14:12:01.513Z,13.50
2022-11-09T14:13:43.628Z,11.40
2022-11-09T14:15:15.364Z,11.85
2022-11-09T14:16:44.506Z,11.13
2022-11-09T14:18:19.716Z,11.23
2022-11-09T14:19:50.853Z,10.85
2022-11-09T14:21:36.759Z,11.77
2022-11-09T14:22:58.945Z,9.88
2022-11-09T14:24:22.962Z,11.10
2022-11-09T14:25:45.796Z,11.07
2022-11-09T14:27:15.689Z,11.02
2022-11-09T14:28:38.115Z,11.38
2022-11-09T14:30:02.856Z,26.02
2022-11-09T14:31:26.717Z,24.17
2022-11-09T14:32:50.627Z,22.40
2022-11-09T14:34:16.983Z,26.30
2022-11-09T14:35:40.793Z,24.73
2022-11-09T14:37:05.923Z,22.52
2022-11-09T14:38:30.270Z,20.95
2022-11-09T14:39:54.615Z,19.90
2022-11-09T14:41:23.111Z,16.90
2022-11-09T14:42:51.273Z,12.93
2022-11-09T14:44:26.044Z,17.10
2022-11-09T14:45:50.864Z,17.20
2022-11-09T14:47:17.060Z,17.17
2022-11-09T14:48:43.292Z,18.40
2022-11-09T14:50:12.888Z,19.42
2022-11-09T14:51:38.126Z,14.15
2022-11-09T14:53:00.773Z,13.93
2022-11-09T14:54:26.896Z,14.98
2022-11-09T14:55:50.674Z,16.08
2022-11-09T14:57:16.185Z,16.58
2022-11-09T14:58:41.236Z,17.02
2022-11-09T15:00:03.933Z,19.00
2022-11-09T15:01:27.406Z,21.00
2022-11-09T15:02:49.675Z,22.30
2022-11-09T15:04:14.924Z,19.20
2022-11-09T15:05:41.304Z,17.25
2022-11-09T15:07:05.356Z,16.13
2022-11-09T15:08:27.756Z,16.02
2022-11-09T15:09:51.553Z,16.83
2022-11-09T15:11:14.142Z,15.85
2022-11-09T15:12:42.519Z,15.02
2022-11-09T15:14:15.368Z,15.68
2022-11-09T15:15:38.975Z,16.30
2022-11-09T15:17:06.891Z,14.73
2022-11-09T15:18:33.905Z,15.57
2022-11-09T15:19:58.215Z,16.05
2022-11-09T15:21:35.035Z,14.45
2022-11-09T15:22:58.582Z,16.23
2022-11-09T15:24:21.645Z,15.40
2022-11-09T15:25:56.244Z,18.02
2022-11-09T15:27:32.216Z,18.38
2022-11-09T15:28:54.635Z,16.73
2022-11-09T15:30:32.305Z,18.65
2022-11-09T15:32:02.293Z,18.50